createdAt,value
2017-11-11T00:00:04.266Z,7.00
2017-11-11T00:02:32.081Z,6.90
2017-11-11T00:05:00.309Z,6.90
2017-11-11T00:07:28.236Z,6.90
2017-11-11T00:09:55.691Z,6.90
2017-11-11T00:12:23.164Z,6.90
2017-11-11T00:14:51.243Z,7.00
2017-11-11T00:17:18.660Z,7.00
2017-11-11T00:19:46.973Z,6.90
2017-11-11T00:22:14.850Z,6.90
2017-11-11T00:24:42.333Z,6.90
2017-11-11T00:27:09.760Z,6.90
2017-11-11T00:29:37.238Z,6.90
2017-11-11T00:32:04.688Z,6.90
2017-11-11T00:34:32.111Z,6.90
2017-11-11T00:37:00.022Z,6.90
2017-11-11T00:39:27.454Z,6.90
2017-11-11T00:41:54.947Z,6.90
2017-11-11T00:44:22.362Z,6.90
2017-11-11T00:46:50.240Z,6.90
2017-11-11T00:49:18.051Z,6.90
2017-11-11T00:51:45.458Z,6.90
2017-11-11T00:54:13.917Z,7.00
2017-11-11T00:56:41.345Z,7.00
2017-11-11T00:59:08.756Z,7.00
2017-11-11T01:01:36.171Z,7.00
2017-11-11T01:04:03.620Z,7.00
2017-11-11T01:06:31.086Z,7.00
2017-11-11T01:08:58.496Z,6.90
2017-11-11T01:11:25.929Z,6.90
2017-11-11T01:13:53.354Z,7.00
2017-11-11T01:16:20.770Z,6.90
2017-11-11T01:18:48.232Z,6.90
2017-11-11T01:21:15.633Z,6.90
2017-11-11T01:23:43.122Z,6.90
2017-11-11T01:26:11.356Z,6.90
2017-11-11T01:28:39.169Z,6.80
2017-11-11T01:31:06.610Z,6.80
2017-11-11T01:33:34.088Z,6.70
2017-11-11T01:36:01.496Z,6.70
2017-11-11T01:38:28.927Z,6.70
2017-11-11T01:40:56.375Z,6.70
2017-11-11T01:43:23.791Z,6.70
2017-11-11T01:45:51.622Z,6.70
2017-11-11T01:48:19.038Z,6.70
2017-11-11T01:50:46.937Z,6.70
2017-11-11T01:53:14.359Z,6.80
2017-11-11T01:55:42.228Z,6.80
2017-11-11T01:58:10.037Z,6.80
2017-11-11T02:00:37.501Z,6.80
2017-11-11T02:03:06.554Z,6.80
2017-11-11T02:05:33.960Z,6.80
2017-11-11T02:08:01.385Z,6.80
2017-11-11T02:10:29.189Z,6.80
2017-11-11T02:12:56.645Z,6.80
2017-11-11T02:15:24.080Z,6.80
2017-11-11T02:17:51.485Z,6.80
2017-11-11T02:20:18.934Z,6.80
2017-11-11T02:22:46.392Z,6.80
2017-11-11T02:25:13.800Z,6.80
2017-11-11T02:27:41.233Z,6.80
2017-11-11T02:30:08.672Z,6.70
2017-11-11T02:32:36.081Z,6.70
2017-11-11T02:35:03.499Z,6.70
2017-11-11T02:37:30.932Z,6.80
2017-11-11T02:39:58.749Z,6.80
2017-11-11T02:42:26.184Z,6.80
2017-11-11T02:44:54.476Z,6.80
2017-11-11T02:47:21.933Z,6.80
2017-11-11T02:49:49.576Z,6.70
2017-11-11T02:52:17.472Z,6.80
2017-11-11T02:54:44.884Z,6.80
2017-11-11T02:57:12.436Z,6.80
2017-11-11T02:59:40.390Z,6.80
2017-11-11T03:02:07.856Z,6.80
2017-11-11T03:04:35.290Z,6.80
2017-11-11T03:07:02.732Z,6.80
2017-11-11T03:09:31.301Z,6.80
2017-11-11T03:11:58.840Z,6.80
2017-11-11T03:14:26.299Z,6.70
2017-11-11T03:16:53.739Z,6.70
2017-11-11T03:19:21.220Z,6.70
2017-11-11T03:21:48.687Z,6.80
2017-11-11T03:24:16.156Z,6.80
2017-11-11T03:26:44.538Z,6.80
2017-11-11T03:29:11.984Z,6.80
2017-11-11T03:31:39.448Z,6.80
2017-11-11T03:34:06.895Z,6.80
2017-11-11T03:36:34.734Z,6.80
2017-11-11T03:39:02.201Z,6.80
2017-11-11T03:41:30.008Z,6.70
2017-11-11T03:43:57.466Z,6.70
2017-11-11T03:46:24.935Z,6.70
2017-11-11T03:48:52.400Z,6.70
2017-11-11T03:51:20.580Z,6.70
2017-11-11T03:53:48.027Z,6.70
2017-11-11T03:56:15.467Z,6.70
2017-11-11T03:58:43.445Z,6.70
2017-11-11T04:01:10.924Z,6.80
2017-11-11T04:03:38.391Z,6.80
2017-11-11T04:06:05.849Z,6.80
2017-11-11T04:08:33.335Z,6.80
2017-11-11T04:11:00.885Z,6.80
2017-11-11T04:13:30.150Z,6.80
2017-11-11T04:15:57.624Z,6.80
2017-11-11T04:18:25.090Z,6.80
2017-11-11T04:20:52.530Z,6.80
2017-11-11T04:23:19.965Z,6.80
2017-11-11T04:25:47.496Z,6.90
2017-11-11T04:28:14.971Z,6.80
2017-11-11T04:30:42.407Z,6.80
2017-11-11T04:33:09.869Z,6.80
2017-11-11T04:35:37.342Z,6.80
2017-11-11T04:38:04.797Z,6.80
2017-11-11T04:40:32.466Z,6.80
2017-11-11T04:42:59.912Z,6.80
2017-11-11T04:45:27.400Z,6.80
2017-11-11T04:47:54.847Z,6.70
2017-11-11T04:50:23.117Z,6.70
2017-11-11T04:52:52.017Z,6.70
2017-11-11T04:55:19.468Z,6.60
2017-11-11T04:57:46.915Z,6.60
2017-11-11T05:00:14.410Z,6.60
2017-11-11T05:02:41.855Z,6.60
2017-11-11T05:05:09.301Z,6.60
2017-11-11T05:07:36.811Z,6.60
2017-11-11T05:10:04.235Z,6.60
2017-11-11T05:12:31.818Z,6.60
2017-11-11T05:14:59.278Z,6.60
2017-11-11T05:17:27.738Z,6.60
2017-11-11T05:19:55.189Z,6.60
2017-11-11T05:22:22.629Z,6.70
2017-11-11T05:24:50.152Z,6.70
2017-11-11T05:27:17.585Z,6.70
2017-11-11T05:29:45.111Z,6.80
2017-11-11T05:32:12.766Z,6.80
2017-11-11T05:34:40.216Z,6.80
2017-11-11T05:37:07.628Z,6.80
2017-11-11T05:39:35.083Z,6.80
2017-11-11T05:42:02.992Z,6.70
2017-11-11T05:44:30.463Z,6.70
2017-11-11T05:46:57.901Z,6.70
2017-11-11T05:49:25.364Z,6.80
2017-11-11T05:51:52.805Z,6.80
2017-11-11T05:54:20.721Z,6.90
2017-11-11T05:56:48.179Z,6.90
2017-11-11T05:59:15.644Z,6.90
2017-11-11T06:01:43.211Z,6.90
2017-11-11T06:04:10.671Z,6.90
2017-11-11T06:06:38.152Z,6.90
2017-11-11T06:09:05.619Z,7.00
2017-11-11T06:11:33.055Z,7.00
2017-11-11T06:14:00.527Z,7.00
2017-11-11T06:16:28.091Z,7.00
2017-11-11T06:18:55.535Z,7.10
2017-11-11T06:21:22.993Z,7.00
2017-11-11T06:23:50.501Z,7.10
2017-11-11T06:26:18.028Z,7.10
2017-11-11T06:28:45.515Z,7.10
2017-11-11T06:31:12.996Z,7.10
2017-11-11T06:33:40.832Z,7.10
2017-11-11T06:36:08.298Z,7.10
2017-11-11T06:38:35.849Z,7.10
2017-11-11T06:41:03.302Z,7.20
2017-11-11T06:43:30.731Z,7.20
2017-11-11T06:45:58.579Z,7.10
2017-11-11T06:48:26.509Z,7.20
2017-11-11T06:50:53.973Z,7.10
2017-11-11T06:53:21.540Z,7.20
2017-11-11T06:55:48.972Z,7.10
2017-11-11T06:58:16.461Z,7.10
2017-11-11T07:00:43.929Z,7.20
2017-11-11T07:03:11.357Z,7.20
2017-11-11T07:05:38.842Z,7.20
2017-11-11T07:08:06.284Z,7.30
2017-11-11T07:10:33.723Z,7.20
2017-11-11T07:13:01.553Z,7.20
2017-11-11T07:15:29.460Z,7.20
2017-11-11T07:17:57.292Z,7.30
2017-11-11T07:20:24.740Z,7.30
2017-11-11T07:22:52.722Z,7.30
2017-11-11T07:25:20.151Z,7.30
2017-11-11T07:27:47.590Z,7.30
2017-11-11T07:30:15.460Z,7.30
2017-11-11T07:32:43.293Z,7.30
2017-11-11T07:35:10.737Z,7.30
2017-11-11T07:37:38.303Z,7.30
2017-11-11T07:40:08.773Z,7.30
2017-11-11T07:42:36.320Z,7.30
2017-11-11T07:45:03.869Z,7.30
2017-11-11T07:47:31.693Z,7.40
2017-11-11T07:49:59.531Z,7.40
2017-11-11T07:52:27.340Z,7.40
2017-11-11T07:54:55.364Z,7.30
2017-11-11T07:57:22.817Z,7.40
2017-11-11T07:59:50.261Z,7.40
2017-11-11T08:02:18.432Z,7.50
2017-11-11T08:04:45.891Z,7.50
2017-11-11T08:07:13.381Z,7.60
2017-11-11T08:09:41.141Z,7.60
2017-11-11T08:12:08.573Z,7.60
2017-11-11T08:14:36.015Z,7.60
2017-11-11T08:17:04.869Z,7.70
2017-11-11T08:19:32.306Z,7.70
2017-11-11T08:21:59.833Z,7.70
2017-11-11T08:24:27.692Z,7.70
2017-11-11T08:26:55.121Z,7.70
2017-11-11T08:29:23.097Z,7.70
2017-11-11T08:31:50.549Z,7.70
2017-11-11T08:34:18.009Z,7.70
2017-11-11T08:36:46.064Z,7.80
2017-11-11T08:39:13.576Z,7.80
2017-11-11T08:41:41.016Z,7.80
2017-11-11T08:44:08.471Z,7.80
2017-11-11T08:46:35.923Z,7.80
2017-11-11T08:49:03.370Z,7.80
2017-11-11T08:51:30.841Z,7.80
2017-11-11T08:53:58.323Z,7.80
2017-11-11T08:56:25.877Z,7.80
2017-11-11T08:58:53.381Z,7.80
2017-11-11T09:01:20.802Z,7.80
2017-11-11T09:03:48.318Z,7.80
2017-11-11T09:06:15.845Z,7.90
2017-11-11T09:08:43.553Z,7.90
2017-11-11T09:11:13.257Z,7.90
2017-11-11T09:13:41.243Z,7.90
2017-11-11T09:16:09.161Z,7.90
2017-11-11T09:18:37.461Z,7.90
2017-11-11T09:21:05.840Z,7.90
2017-11-11T09:23:33.306Z,7.90
2017-11-11T09:26:00.863Z,8.00
2017-11-11T09:28:28.320Z,8.00
2017-11-11T09:30:55.774Z,8.00
2017-11-11T09:33:23.222Z,8.00
2017-11-11T09:35:50.676Z,8.00
2017-11-11T09:38:18.100Z,8.10
2017-11-11T09:40:47.442Z,8.20
2017-11-11T09:43:14.905Z,8.20
2017-11-11T09:45:42.354Z,8.30
2017-11-11T09:48:09.851Z,8.30
2017-11-11T09:50:37.301Z,8.30
2017-11-11T09:53:04.768Z,8.30
2017-11-11T09:55:32.215Z,8.30
2017-11-11T09:57:59.625Z,8.30
2017-11-11T10:00:27.168Z,8.40
2017-11-11T10:02:55.006Z,8.40
2017-11-11T10:05:22.491Z,8.40
2017-11-11T10:07:49.952Z,8.50
2017-11-11T10:10:17.709Z,8.50
2017-11-11T10:12:45.146Z,8.50
2017-11-11T10:15:12.624Z,8.50
2017-11-11T10:17:40.053Z,8.50
2017-11-11T10:20:07.891Z,8.60
2017-11-11T10:22:35.449Z,8.60
2017-11-11T10:25:03.006Z,8.60
2017-11-11T10:27:30.441Z,8.60
2017-11-11T10:29:57.905Z,8.60
2017-11-11T10:32:25.394Z,8.60
2017-11-11T10:34:52.810Z,8.60
2017-11-11T10:37:20.846Z,8.60
2017-11-11T10:39:48.602Z,8.60
2017-11-11T10:42:16.185Z,8.60
2017-11-11T10:44:43.656Z,8.60
2017-11-11T10:47:11.088Z,8.60
2017-11-11T10:49:38.529Z,8.70
2017-11-11T10:52:06.013Z,8.70
2017-11-11T10:54:33.701Z,8.70
2017-11-11T10:57:01.125Z,8.70
2017-11-11T10:59:28.644Z,8.60
2017-11-11T11:01:56.175Z,8.60
2017-11-11T11:04:23.624Z,8.60
2017-11-11T11:06:51.060Z,8.60
2017-11-11T11:09:18.553Z,8.70
2017-11-11T11:11:46.094Z,8.60
2017-11-11T11:14:13.555Z,8.70
2017-11-11T11:16:41.057Z,8.70
2017-11-11T11:19:08.524Z,8.70
2017-11-11T11:21:35.959Z,8.70
2017-11-11T11:24:03.423Z,8.70
2017-11-11T11:26:30.894Z,8.70
2017-11-11T11:28:58.372Z,8.80
2017-11-11T11:31:26.724Z,8.90
2017-11-11T11:33:54.169Z,8.90
2017-11-11T11:36:21.607Z,8.90
2017-11-11T11:38:49.440Z,8.90
2017-11-11T11:41:16.903Z,8.90
2017-11-11T11:43:44.427Z,9.00
2017-11-11T11:46:11.877Z,9.00
2017-11-11T11:48:39.351Z,9.00
2017-11-11T11:51:06.767Z,9.00
2017-11-11T11:53:34.636Z,9.10
2017-11-11T11:56:02.066Z,9.10
2017-11-11T11:58:29.496Z,9.10
2017-11-11T12:00:56.936Z,9.10
2017-11-11T12:03:24.776Z,9.10
2017-11-11T12:05:52.224Z,9.10
2017-11-11T12:08:19.673Z,9.10
2017-11-11T12:10:47.139Z,9.10
2017-11-11T12:13:14.593Z,9.10
2017-11-11T12:15:42.061Z,9.10
2017-11-11T12:18:10.536Z,9.10
2017-11-11T12:20:37.968Z,9.10
2017-11-11T12:23:05.482Z,9.10
2017-11-11T12:25:32.929Z,9.10
2017-11-11T12:28:00.374Z,9.10
2017-11-11T12:30:27.813Z,9.10
2017-11-11T12:32:55.670Z,9.20
2017-11-11T12:35:23.578Z,9.20
2017-11-11T12:37:51.245Z,9.20
2017-11-11T12:40:18.766Z,9.20
2017-11-11T12:42:46.178Z,9.20
2017-11-11T12:45:13.615Z,9.20
2017-11-11T12:47:41.298Z,9.30
2017-11-11T12:50:09.025Z,9.30
2017-11-11T12:52:36.628Z,9.30
2017-11-11T12:55:04.544Z,9.30
2017-11-11T12:57:31.967Z,9.30
2017-11-11T12:59:59.368Z,9.30
2017-11-11T13:02:27.772Z,9.20
2017-11-11T13:04:56.595Z,9.30
2017-11-11T13:07:25.877Z,9.30
2017-11-11T13:09:54.535Z,9.20
2017-11-11T13:12:22.988Z,9.20
2017-11-11T13:14:51.986Z,9.20
2017-11-11T13:17:20.323Z,9.20
2017-11-11T13:19:49.379Z,9.30
2017-11-11T13:22:18.354Z,9.30
2017-11-11T13:24:47.535Z,9.30
2017-11-11T13:27:16.824Z,9.30
2017-11-11T13:29:45.779Z,9.30
2017-11-11T13:32:14.930Z,9.40
2017-11-11T13:34:43.401Z,9.40
2017-11-11T13:37:12.173Z,9.40
2017-11-11T13:39:41.527Z,9.50
2017-11-11T13:42:10.087Z,9.50
2017-11-11T13:44:39.151Z,9.50
2017-11-11T13:47:07.844Z,9.50
2017-11-11T13:49:36.780Z,9.50
2017-11-11T13:52:05.701Z,9.60
2017-11-11T13:54:34.298Z,9.60
2017-11-11T13:57:02.869Z,9.60
2017-11-11T13:59:31.835Z,9.70
2017-11-11T14:02:00.455Z,9.70
2017-11-11T14:04:29.669Z,9.70
2017-11-11T14:06:57.896Z,9.80
2017-11-11T14:09:27.534Z,9.80
2017-11-11T14:11:57.644Z,9.80
2017-11-11T14:14:26.239Z,9.80
2017-11-11T14:16:56.441Z,9.80
2017-11-11T14:19:25.502Z,9.80
2017-11-11T14:21:53.720Z,9.80
2017-11-11T14:24:22.889Z,9.90
2017-11-11T14:26:52.357Z,9.90
2017-11-11T14:29:21.710Z,9.90
2017-11-11T14:31:50.726Z,9.90
2017-11-11T14:34:19.447Z,9.90
2017-11-11T14:36:47.682Z,9.90
2017-11-11T14:39:17.072Z,9.90
2017-11-11T14:41:46.375Z,9.90
2017-11-11T14:44:14.455Z,9.90
2017-11-11T14:46:43.203Z,10.00
2017-11-11T14:49:11.499Z,10.00
2017-11-11T14:51:40.161Z,10.00
2017-11-11T14:54:09.368Z,10.00
2017-11-11T14:56:38.424Z,10.00
2017-11-11T14:59:06.524Z,10.00
2017-11-11T15:01:35.394Z,10.00
2017-11-11T15:04:04.594Z,10.00
2017-11-11T15:06:33.449Z,10.00
2017-11-11T15:09:01.790Z,10.00
2017-11-11T15:11:30.821Z,10.00
2017-11-11T15:13:59.931Z,10.00
2017-11-11T15:16:28.877Z,10.10
2017-11-11T15:18:58.679Z,10.10
2017-11-11T15:21:27.643Z,10.10
2017-11-11T15:23:57.331Z,10.10
2017-11-11T15:26:28.255Z,10.10
2017-11-11T15:28:56.757Z,10.10
2017-11-11T15:31:25.621Z,10.00
2017-11-11T15:33:53.977Z,10.00
2017-11-11T15:36:23.050Z,10.00
2017-11-11T15:38:51.451Z,10.00
2017-11-11T15:41:20.909Z,10.00
2017-11-11T15:43:49.788Z,10.00
2017-11-11T15:46:18.095Z,10.00
2017-11-11T15:48:46.965Z,10.00
2017-11-11T15:51:16.471Z,10.00
2017-11-11T15:53:45.262Z,10.00
2017-11-11T15:56:14.893Z,10.00
2017-11-11T15:58:43.409Z,10.00
2017-11-11T16:01:13.334Z,10.00
2017-11-11T16:03:42.077Z,10.00
2017-11-11T16:06:11.002Z,10.00
2017-11-11T16:08:41.564Z,9.90
2017-11-11T16:11:12.707Z,10.00
2017-11-11T16:13:42.658Z,10.00
2017-11-11T16:16:13.392Z,10.00
2017-11-11T16:18:43.629Z,10.00
2017-11-11T16:21:14.363Z,10.00
2017-11-11T16:23:45.541Z,9.90
2017-11-11T16:26:15.657Z,9.90
2017-11-11T16:28:45.096Z,10.00
2017-11-11T16:31:14.725Z,10.00
2017-11-11T16:33:43.899Z,10.00
2017-11-11T16:36:13.174Z,10.00
2017-11-11T16:38:43.707Z,10.00
2017-11-11T16:41:13.884Z,10.00
2017-11-11T16:43:44.469Z,10.00
2017-11-11T16:46:15.517Z,10.00
2017-11-11T16:48:45.711Z,10.00
2017-11-11T16:51:16.047Z,10.00
2017-11-11T16:53:45.750Z,10.00
2017-11-11T16:56:15.879Z,10.00
2017-11-11T16:58:44.681Z,10.00
2017-11-11T17:01:14.156Z,10.00
2017-11-11T17:03:43.845Z,10.00
2017-11-11T17:06:13.789Z,9.90
2017-11-11T17:08:43.814Z,9.90
2017-11-11T17:11:13.002Z,9.90
2017-11-11T17:13:42.607Z,9.90
2017-11-11T17:16:12.009Z,9.90
2017-11-11T17:18:42.318Z,9.90
2017-11-11T17:21:12.289Z,9.90
2017-11-11T17:23:42.773Z,9.80
2017-11-11T17:26:12.641Z,9.90
2017-11-11T17:28:45.333Z,9.80
2017-11-11T17:31:14.881Z,9.80
2017-11-11T17:33:44.535Z,9.80
2017-11-11T17:36:14.952Z,9.70
2017-11-11T17:38:45.281Z,9.80
2017-11-11T17:41:15.462Z,9.80
2017-11-11T17:43:46.019Z,9.80
2017-11-11T17:46:16.864Z,9.80
2017-11-11T17:48:47.512Z,9.80
2017-11-11T17:51:17.752Z,9.80
2017-11-11T17:53:48.825Z,9.80
2017-11-11T17:56:19.516Z,9.80
2017-11-11T17:58:52.356Z,9.80
2017-11-11T18:01:22.516Z,9.80
2017-11-11T18:03:53.300Z,9.90
2017-11-11T18:06:24.439Z,9.90
2017-11-11T18:08:55.257Z,9.90
2017-11-11T18:11:25.918Z,9.80
2017-11-11T18:13:56.513Z,9.80
2017-11-11T18:16:27.257Z,9.80
2017-11-11T18:18:58.437Z,9.90
2017-11-11T18:21:28.857Z,9.80
2017-11-11T18:23:59.492Z,9.80
2017-11-11T18:26:31.151Z,9.80
2017-11-11T18:29:01.820Z,9.80
2017-11-11T18:31:32.148Z,9.80
2017-11-11T18:34:02.637Z,9.80
2017-11-11T18:36:33.503Z,9.80
2017-11-11T18:39:04.036Z,9.80
2017-11-11T18:41:34.479Z,9.80
2017-11-11T18:44:05.241Z,9.80
2017-11-11T18:46:35.439Z,9.80
2017-11-11T18:49:05.274Z,9.80
2017-11-11T18:51:36.232Z,9.70
2017-11-11T18:54:06.396Z,9.70
2017-11-11T18:56:36.700Z,9.70
2017-11-11T18:59:07.750Z,9.70
2017-11-11T19:01:37.543Z,9.60
2017-11-11T19:04:08.495Z,9.70
2017-11-11T19:06:39.095Z,9.70
2017-11-11T19:09:08.827Z,9.70
2017-11-11T19:11:39.272Z,9.60
2017-11-11T19:14:10.330Z,9.60
2017-11-11T19:16:40.396Z,9.60
2017-11-11T19:19:11.644Z,9.60
2017-11-11T19:21:42.877Z,9.60
2017-11-11T19:24:13.336Z,9.60
2017-11-11T19:26:44.151Z,9.50
2017-11-11T19:29:15.260Z,9.60
2017-11-11T19:31:46.135Z,9.50
2017-11-11T19:34:16.512Z,9.50
2017-11-11T19:36:47.986Z,9.40
2017-11-11T19:39:17.614Z,9.50
2017-11-11T19:41:46.499Z,9.50
2017-11-11T19:44:16.383Z,9.50
2017-11-11T19:46:46.839Z,9.40
2017-11-11T19:49:17.424Z,9.40
2017-11-11T19:51:47.773Z,9.50
2017-11-11T19:54:18.766Z,9.50
2017-11-11T19:56:50.184Z,9.40
2017-11-11T19:59:20.593Z,9.50
2017-11-11T20:01:51.415Z,9.40
2017-11-11T20:04:23.209Z,9.40
2017-11-11T20:06:54.279Z,9.40
2017-11-11T20:09:24.920Z,9.30
2017-11-11T20:11:55.936Z,9.30
2017-11-11T20:14:26.298Z,9.30
2017-11-11T20:16:57.202Z,9.20
2017-11-11T20:19:28.572Z,9.20
2017-11-11T20:21:59.130Z,9.20
2017-11-11T20:24:29.698Z,9.20
2017-11-11T20:26:59.430Z,9.20
2017-11-11T20:29:28.830Z,9.20
2017-11-11T20:31:58.709Z,9.10
2017-11-11T20:34:29.524Z,9.10
2017-11-11T20:37:00.219Z,9.10
2017-11-11T20:39:31.001Z,9.00
2017-11-11T20:42:02.127Z,9.00
2017-11-11T20:44:32.954Z,9.00
2017-11-11T20:47:03.641Z,9.00
2017-11-11T20:49:34.512Z,9.00
2017-11-11T20:52:04.148Z,8.90
2017-11-11T20:54:33.669Z,8.90
2017-11-11T20:57:04.264Z,8.90
2017-11-11T20:59:36.334Z,8.90
2017-11-11T21:02:05.801Z,8.90
2017-11-11T21:04:36.068Z,8.90
2017-11-11T21:07:06.383Z,8.80
2017-11-11T21:09:36.287Z,8.80
2017-11-11T21:12:07.756Z,8.80
2017-11-11T21:14:38.198Z,8.80
2017-11-11T21:17:09.404Z,8.70
2017-11-11T21:19:38.480Z,8.70
2017-11-11T21:22:08.966Z,8.70
2017-11-11T21:24:39.743Z,8.60
2017-11-11T21:27:09.034Z,8.70
2017-11-11T21:29:39.322Z,8.60
2017-11-11T21:32:09.306Z,8.60
2017-11-11T21:34:39.930Z,8.60
2017-11-11T21:37:10.222Z,8.50
2017-11-11T21:39:40.204Z,8.50
2017-11-11T21:42:09.336Z,8.50
2017-11-11T21:44:39.009Z,8.50
2017-11-11T21:47:08.001Z,8.50
2017-11-11T21:49:37.551Z,8.50
2017-11-11T21:52:08.387Z,8.50
2017-11-11T21:54:38.735Z,8.40
2017-11-11T21:57:07.685Z,8.50
2017-11-11T21:59:36.411Z,8.40
2017-11-11T22:02:05.924Z,8.40
2017-11-11T22:04:36.601Z,8.40
2017-11-11T22:07:06.825Z,8.40
2017-11-11T22:09:35.535Z,8.40
2017-11-11T22:12:05.879Z,8.30
2017-11-11T22:14:35.974Z,8.30
2017-11-11T22:17:05.378Z,8.30
2017-11-11T22:19:35.823Z,8.30
2017-11-11T22:22:08.408Z,8.30
2017-11-11T22:24:38.834Z,8.30
2017-11-11T22:27:09.264Z,8.30
2017-11-11T22:29:40.069Z,8.30
2017-11-11T22:32:11.108Z,8.20
2017-11-11T22:34:41.331Z,8.20
2017-11-11T22:37:11.041Z,8.30
2017-11-11T22:39:40.583Z,8.30
2017-11-11T22:42:10.698Z,8.20
2017-11-11T22:44:40.112Z,8.20
2017-11-11T22:47:09.824Z,8.20
2017-11-11T22:49:40.368Z,8.20
2017-11-11T22:52:10.501Z,8.20
2017-11-11T22:54:39.820Z,8.20
2017-11-11T22:57:08.902Z,8.20
2017-11-11T22:59:37.840Z,8.20
2017-11-11T23:02:07.150Z,8.20
2017-11-11T23:04:35.315Z,8.10
2017-11-11T23:07:05.379Z,8.10
2017-11-11T23:09:34.560Z,8.20
2017-11-11T23:12:03.574Z,8.20
2017-11-11T23:14:32.009Z,8.20
2017-11-11T23:17:01.072Z,8.20
2017-11-11T23:19:30.246Z,8.20
2017-11-11T23:21:58.478Z,8.20
2017-11-11T23:24:27.862Z,8.30
2017-11-11T23:26:57.173Z,8.30
2017-11-11T23:29:26.557Z,8.30
2017-11-11T23:31:55.699Z,8.30
2017-11-11T23:34:24.479Z,8.30
2017-11-11T23:36:53.783Z,8.40
2017-11-11T23:39:22.773Z,8.40
2017-11-11T23:41:51.468Z,8.40
2017-11-11T23:44:20.498Z,8.40
2017-11-11T23:46:49.265Z,8.40
2017-11-11T23:49:17.927Z,8.40
2017-11-11T23:51:46.370Z,8.40
2017-11-11T23:54:15.957Z,8.40
2017-11-11T23:56:44.089Z,8.40
2017-11-11T23:59:13.765Z,8.40
